GEC8277 BIKF-EGPH
Flight info
| Callsign | GEC8277 |
|---|---|
| Flight time | 1h 46m |
| Altitude | 37000 |
| Route | OSKUM3A OSKUM DCT RATSU/N0486F370 DCT BARKU DCT BRUCE/N0444F250 Q602 CLYDE DCT STIRA |
| Aircraft | MD11/H-SDE1E2E3FGHIJ2J3J4J5M1RWXY/LB1D1 |
Departure
| Time | 2026-05-05 18:12 |
|---|---|
| Airport | Keflavik International Airport (BIKF) |
Arrival
| Time | 2026-05-05 19:58 |
|---|---|
| Airport | Edinburgh Airport (EGPH) |
| Time | Latitude | Longitude | Altitude | Speed | Heading |
|---|---|---|---|---|---|
| 2026-05-05 17:32 | 63.99295 | -22.63633 | 150 ft | 0 kts | 270° |
| 2026-05-05 17:56 | 63.99295 | -22.63591 | 153 ft | 4 kts | 270° |
| 2026-05-05 17:56 | 63.99295 | -22.63529 | 150 ft | 4 kts | 270° |
| 2026-05-05 17:56 | 63.99295 | -22.63467 | 150 ft | 4 kts | 270° |
| 2026-05-05 17:57 | 63.99295 | -22.63445 | 150 ft | 0 kts | 270° |
| 2026-05-05 18:00 | 63.99295 | -22.63465 | 148 ft | 4 kts | 267° |
| 2026-05-05 18:00 | 63.99278 | -22.63505 | 150 ft | 4 kts | 207° |
| 2026-05-05 18:00 | 63.99246 | -22.63486 | 150 ft | 7 kts | 147° |
| 2026-05-05 18:00 | 63.99200 | -22.63443 | 150 ft | 7 kts | 160° |
| 2026-05-05 18:01 | 63.99173 | -22.63358 | 153 ft | 8 kts | 99° |
| 2026-05-05 18:01 | 63.99172 | -22.63186 | 150 ft | 14 kts | 90° |
| 2026-05-05 18:01 | 63.99172 | -22.62946 | 150 ft | 16 kts | 90° |
| 2026-05-05 18:01 | 63.99173 | -22.62698 | 150 ft | 15 kts | 90° |
| 2026-05-05 18:02 | 63.99174 | -22.62453 | 150 ft | 16 kts | 89° |
| 2026-05-05 18:02 | 63.99174 | -22.62186 | 150 ft | 17 kts | 90° |
| 2026-05-05 18:02 | 63.99174 | -22.61929 | 150 ft | 16 kts | 90° |
| 2026-05-05 18:02 | 63.99173 | -22.61699 | 155 ft | 13 kts | 90° |
| 2026-05-05 18:03 | 63.99173 | -22.61496 | 160 ft | 12 kts | 90° |
| 2026-05-05 18:03 | 63.99174 | -22.61325 | 164 ft | 9 kts | 89° |
| 2026-05-05 18:03 | 63.99169 | -22.61181 | 167 ft | 6 kts | 111° |
| 2026-05-05 18:03 | 63.99135 | -22.61132 | 169 ft | 8 kts | 162° |
| 2026-05-05 18:04 | 63.99058 | -22.61118 | 171 ft | 14 kts | 179° |
| 2026-05-05 18:04 | 63.98951 | -22.61122 | 171 ft | 17 kts | 180° |
| 2026-05-05 18:04 | 63.98833 | -22.61123 | 171 ft | 17 kts | 181° |
| 2026-05-05 18:04 | 63.98725 | -22.61124 | 171 ft | 10 kts | 180° |
| 2026-05-05 18:05 | 63.98653 | -22.61124 | 173 ft | 7 kts | 180° |
| 2026-05-05 18:05 | 63.98641 | -22.61124 | 172 ft | 0 kts | 180° |
| 2026-05-05 18:05 | 63.98640 | -22.61124 | 172 ft | 1 kts | 180° |
| 2026-05-05 18:05 | 63.98631 | -22.61124 | 172 ft | 3 kts | 180° |
| 2026-05-05 18:06 | 63.98579 | -22.61124 | 170 ft | 12 kts | 180° |
| 2026-05-05 18:06 | 63.98521 | -22.61124 | 174 ft | 14 kts | 180° |
| 2026-05-05 18:06 | 63.98365 | -22.61123 | 166 ft | 18 kts | 180° |
| 2026-05-05 18:06 | 63.98247 | -22.61123 | 169 ft | 16 kts | 180° |
| 2026-05-05 18:07 | 63.98163 | -22.61095 | 167 ft | 8 kts | 148° |
| 2026-05-05 18:07 | 63.98154 | -22.61065 | 169 ft | 2 kts | 120° |
| 2026-05-05 18:07 | 63.98138 | -22.61000 | 172 ft | 5 kts | 124° |
| 2026-05-05 18:07 | 63.98079 | -22.60938 | 175 ft | 15 kts | 173° |
| 2026-05-05 18:08 | 63.97945 | -22.60937 | 177 ft | 22 kts | 180° |
| 2026-05-05 18:08 | 63.97784 | -22.60941 | 177 ft | 23 kts | 181° |
| 2026-05-05 18:08 | 63.97620 | -22.60938 | 175 ft | 24 kts | 180° |
| 2026-05-05 18:08 | 63.97450 | -22.60940 | 173 ft | 25 kts | 180° |
| 2026-05-05 18:09 | 63.97275 | -22.60939 | 168 ft | 26 kts | 179° |
| 2026-05-05 18:09 | 63.97083 | -22.60941 | 161 ft | 29 kts | 180° |
| 2026-05-05 18:09 | 63.96905 | -22.60940 | 154 ft | 25 kts | 180° |
| 2026-05-05 18:09 | 63.96731 | -22.60939 | 148 ft | 23 kts | 179° |
| 2026-05-05 18:10 | 63.96577 | -22.60938 | 143 ft | 22 kts | 180° |
| 2026-05-05 18:10 | 63.96485 | -22.60910 | 143 ft | 11 kts | 147° |
| 2026-05-05 18:10 | 63.96463 | -22.60801 | 145 ft | 5 kts | 91° |
| 2026-05-05 18:10 | 63.96464 | -22.60735 | 148 ft | 6 kts | 89° |
| 2026-05-05 18:11 | 63.96470 | -22.60598 | 151 ft | 10 kts | 69° |
| 2026-05-05 18:11 | 63.96519 | -22.60544 | 154 ft | 10 kts | 4° |
| 2026-05-05 18:11 | 63.96584 | -22.60545 | 156 ft | 8 kts | 359° |
| 2026-05-05 18:11 | 63.96771 | -22.60544 | 163 ft | 66 kts | 0° |
| 2026-05-05 18:12 | 63.97551 | -22.60538 | 196 ft | 151 kts | 359° |
| 2026-05-05 18:12 | 63.98695 | -22.60626 | 923 ft | 169 kts | 3° |
| 2026-05-05 18:12 | 63.99814 | -22.60753 | 2427 ft | 154 kts | 1° |
| 2026-05-05 18:12 | 64.00905 | -22.60922 | 3639 ft | 165 kts | 359° |
| 2026-05-05 18:13 | 64.02159 | -22.61078 | 4197 ft | 195 kts | 3° |
| 2026-05-05 18:13 | 64.03529 | -22.60935 | 5221 ft | 195 kts | 11° |
| 2026-05-05 18:13 | 64.04886 | -22.60004 | 5757 ft | 223 kts | 31° |
| 2026-05-05 18:13 | 64.05989 | -22.57295 | 6078 ft | 244 kts | 66° |
| 2026-05-05 18:14 | 64.06331 | -22.53441 | 6815 ft | 251 kts | 84° |
| 2026-05-05 18:14 | 64.06365 | -22.49413 | 7756 ft | 257 kts | 87° |
| 2026-05-05 18:14 | 64.06352 | -22.45286 | 8844 ft | 263 kts | 90° |
| 2026-05-05 18:14 | 64.06046 | -22.41167 | 9931 ft | 270 kts | 108° |
| 2026-05-05 18:15 | 64.05247 | -22.37130 | 10570 ft | 295 kts | 115° |
| 2026-05-05 18:15 | 64.04197 | -22.32722 | 10719 ft | 334 kts | 116° |
| 2026-05-05 18:15 | 64.03000 | -22.27947 | 11270 ft | 354 kts | 119° |
| 2026-05-05 18:15 | 64.01744 | -22.22997 | 12078 ft | 366 kts | 120° |
| 2026-05-05 18:16 | 64.00471 | -22.17971 | 13090 ft | 374 kts | 120° |
| 2026-05-05 18:16 | 63.99154 | -22.12752 | 13944 ft | 384 kts | 120° |
| 2026-05-05 18:16 | 63.97805 | -22.07392 | 14764 ft | 391 kts | 120° |
| 2026-05-05 18:16 | 63.96444 | -22.01975 | 15639 ft | 396 kts | 121° |
| 2026-05-05 18:17 | 63.95086 | -21.96572 | 16494 ft | 401 kts | 121° |
| 2026-05-05 18:17 | 63.93686 | -21.91010 | 17224 ft | 408 kts | 122° |
| 2026-05-05 18:17 | 63.92254 | -21.85339 | 17997 ft | 415 kts | 122° |
| 2026-05-05 18:17 | 63.90798 | -21.79591 | 18713 ft | 421 kts | 123° |
| 2026-05-05 18:18 | 63.89332 | -21.73863 | 19317 ft | 428 kts | 123° |
| 2026-05-05 18:18 | 63.87813 | -21.67959 | 19906 ft | 434 kts | 123° |
| 2026-05-05 18:18 | 63.86272 | -21.61972 | 20499 ft | 441 kts | 122° |
| 2026-05-05 18:18 | 63.84730 | -21.55985 | 21074 ft | 447 kts | 122° |
| 2026-05-05 18:19 | 63.83148 | -21.49848 | 21674 ft | 453 kts | 122° |
| 2026-05-05 18:19 | 63.81553 | -21.43666 | 22460 ft | 454 kts | 122° |
| 2026-05-05 18:19 | 63.79943 | -21.37424 | 23120 ft | 460 kts | 122° |
| 2026-05-05 18:19 | 63.78335 | -21.31205 | 23749 ft | 466 kts | 122° |
| 2026-05-05 18:20 | 63.76756 | -21.24726 | 24226 ft | 472 kts | 115° |
| 2026-05-05 18:20 | 63.75710 | -21.17653 | 24802 ft | 476 kts | 103° |
| 2026-05-05 18:20 | 63.75117 | -21.10326 | 25306 ft | 481 kts | 97° |
| 2026-05-05 18:20 | 63.74704 | -21.02713 | 25563 ft | 493 kts | 95° |
| 2026-05-05 18:21 | 63.74342 | -20.94949 | 26132 ft | 498 kts | 94° |
| 2026-05-05 18:21 | 63.73957 | -20.87129 | 26710 ft | 503 kts | 95° |
| 2026-05-05 18:21 | 63.73529 | -20.79308 | 27280 ft | 508 kts | 96° |
| 2026-05-05 18:21 | 63.73057 | -20.71371 | 27837 ft | 513 kts | 96° |
| 2026-05-05 18:22 | 63.72552 | -20.63340 | 28397 ft | 518 kts | 96° |
| 2026-05-05 18:22 | 63.72031 | -20.55320 | 28932 ft | 523 kts | 96° |
| 2026-05-05 18:22 | 63.71344 | -20.47240 | 29697 ft | 524 kts | 104° |
| 2026-05-05 18:22 | 63.70184 | -20.39396 | 30246 ft | 529 kts | 111° |
| 2026-05-05 18:23 | 63.68706 | -20.31759 | 30649 ft | 533 kts | 115° |
| 2026-05-05 18:23 | 63.67105 | -20.24304 | 31067 ft | 535 kts | 116° |
| 2026-05-05 18:23 | 63.65455 | -20.16785 | 31592 ft | 535 kts | 116° |
| 2026-05-05 18:23 | 63.63824 | -20.09248 | 32140 ft | 533 kts | 115° |
| 2026-05-05 18:24 | 63.62223 | -20.01688 | 32685 ft | 532 kts | 115° |
| 2026-05-05 18:24 | 63.60650 | -19.94136 | 33226 ft | 531 kts | 114° |
| 2026-05-05 18:24 | 63.59112 | -19.86685 | 33647 ft | 532 kts | 114° |
| 2026-05-05 18:24 | 63.57551 | -19.79112 | 34079 ft | 533 kts | 114° |
| 2026-05-05 18:25 | 63.55985 | -19.71533 | 34530 ft | 531 kts | 114° |
| 2026-05-05 18:25 | 63.55480 | -19.69094 | 34660 ft | 531 kts | 114° |
| 2026-05-05 18:25 | 63.52878 | -19.56602 | 35332 ft | 529 kts | 114° |
| 2026-05-05 18:25 | 63.51310 | -19.49121 | 35813 ft | 527 kts | 114° |
| 2026-05-05 18:26 | 63.49750 | -19.41710 | 36173 ft | 525 kts | 115° |
| 2026-05-05 18:26 | 63.48206 | -19.34405 | 36527 ft | 524 kts | 115° |
| 2026-05-05 18:26 | 63.46638 | -19.27012 | 36895 ft | 523 kts | 115° |
| 2026-05-05 18:26 | 63.45068 | -19.19634 | 37145 ft | 524 kts | 115° |
| 2026-05-05 18:27 | 63.43499 | -19.12284 | 37198 ft | 523 kts | 115° |
| 2026-05-05 18:27 | 63.40363 | -18.97675 | 37207 ft | 523 kts | 115° |
| 2026-05-05 18:28 | 63.35616 | -18.75819 | 37198 ft | 523 kts | 116° |
| 2026-05-05 18:28 | 63.32380 | -18.61382 | 37206 ft | 523 kts | 116° |
| 2026-05-05 18:29 | 63.29154 | -18.46903 | 37214 ft | 521 kts | 115° |
| 2026-05-05 18:29 | 63.25944 | -18.32425 | 37204 ft | 521 kts | 115° |
| 2026-05-05 18:30 | 63.22732 | -18.17996 | 37198 ft | 521 kts | 116° |
| 2026-05-05 18:30 | 63.19519 | -18.03668 | 37201 ft | 521 kts | 116° |
| 2026-05-05 18:31 | 63.16268 | -17.89277 | 37206 ft | 522 kts | 116° |
| 2026-05-05 18:31 | 63.13013 | -17.74965 | 37213 ft | 522 kts | 116° |
| 2026-05-05 18:32 | 63.09730 | -17.60627 | 37206 ft | 522 kts | 116° |
| 2026-05-05 18:32 | 63.06449 | -17.46391 | 37204 ft | 521 kts | 117° |
| 2026-05-05 18:33 | 63.03146 | -17.32158 | 37207 ft | 521 kts | 117° |
| 2026-05-05 18:33 | 62.99835 | -17.17980 | 37183 ft | 521 kts | 117° |
| 2026-05-05 18:34 | 62.96460 | -17.03885 | 37207 ft | 523 kts | 118° |
| 2026-05-05 18:34 | 62.93619 | -16.92121 | 37204 ft | 523 kts | 117° |
| 2026-05-05 18:35 | 62.90223 | -16.77948 | 37209 ft | 523 kts | 117° |
| 2026-05-05 18:35 | 62.86855 | -16.63879 | 37207 ft | 523 kts | 117° |
| 2026-05-05 18:36 | 62.83458 | -16.49769 | 37200 ft | 522 kts | 117° |
| 2026-05-05 18:36 | 62.80064 | -16.35774 | 37201 ft | 522 kts | 118° |
| 2026-05-05 18:37 | 62.76638 | -16.21743 | 37196 ft | 524 kts | 118° |
| 2026-05-05 18:37 | 62.73183 | -16.07682 | 37206 ft | 525 kts | 118° |
| 2026-05-05 18:38 | 62.69729 | -15.93720 | 37200 ft | 525 kts | 118° |
| 2026-05-05 18:38 | 62.66259 | -15.79777 | 37203 ft | 525 kts | 118° |
| 2026-05-05 18:39 | 62.62761 | -15.65809 | 37195 ft | 525 kts | 118° |
| 2026-05-05 18:39 | 62.59235 | -15.51875 | 37200 ft | 525 kts | 119° |
| 2026-05-05 18:40 | 62.55664 | -15.38119 | 37191 ft | 526 kts | 120° |
| 2026-05-05 18:40 | 62.52087 | -15.24271 | 37198 ft | 527 kts | 119° |
| 2026-05-05 18:41 | 62.48536 | -15.10464 | 37200 ft | 527 kts | 119° |
| 2026-05-05 18:41 | 62.44951 | -14.96578 | 37200 ft | 527 kts | 119° |
| 2026-05-05 18:42 | 62.41384 | -14.82854 | 37194 ft | 527 kts | 120° |
| 2026-05-05 18:42 | 62.37778 | -14.69070 | 37198 ft | 525 kts | 120° |
| 2026-05-05 18:43 | 62.34195 | -14.55465 | 37187 ft | 525 kts | 120° |
| 2026-05-05 18:43 | 62.30575 | -14.41801 | 37197 ft | 525 kts | 120° |
| 2026-05-05 18:44 | 62.26950 | -14.28204 | 37193 ft | 525 kts | 120° |
| 2026-05-05 18:44 | 62.23301 | -14.14595 | 37193 ft | 525 kts | 120° |
| 2026-05-05 18:45 | 62.19662 | -14.01109 | 37192 ft | 525 kts | 120° |
| 2026-05-05 18:45 | 62.15938 | -13.87628 | 37215 ft | 525 kts | 121° |
| 2026-05-05 18:46 | 62.12230 | -13.74270 | 37182 ft | 525 kts | 121° |
| 2026-05-05 18:46 | 62.08520 | -13.60818 | 37188 ft | 525 kts | 121° |
| 2026-05-05 18:47 | 62.04822 | -13.47428 | 37190 ft | 525 kts | 121° |
| 2026-05-05 18:47 | 62.01096 | -13.34013 | 37184 ft | 525 kts | 121° |
| 2026-05-05 18:48 | 61.97352 | -13.20622 | 37185 ft | 525 kts | 121° |
| 2026-05-05 18:48 | 61.93622 | -13.07363 | 37183 ft | 525 kts | 121° |
| 2026-05-05 18:49 | 61.89853 | -12.94046 | 37183 ft | 526 kts | 122° |
| 2026-05-05 18:49 | 61.86063 | -12.80732 | 37183 ft | 526 kts | 122° |
| 2026-05-05 18:50 | 61.82291 | -12.67558 | 37183 ft | 526 kts | 122° |
| 2026-05-05 18:50 | 61.78474 | -12.54304 | 37183 ft | 526 kts | 122° |
| 2026-05-05 18:51 | 61.74628 | -12.41138 | 37184 ft | 526 kts | 123° |
| 2026-05-05 18:51 | 61.70764 | -12.28134 | 37180 ft | 526 kts | 123° |
| 2026-05-05 18:52 | 61.66887 | -12.14998 | 37166 ft | 526 kts | 123° |
| 2026-05-05 18:52 | 61.63051 | -12.01986 | 37183 ft | 526 kts | 123° |
| 2026-05-05 18:53 | 61.59172 | -11.88887 | 37179 ft | 526 kts | 123° |
| 2026-05-05 18:53 | 61.55286 | -11.75846 | 37180 ft | 526 kts | 123° |
| 2026-05-05 18:54 | 61.51402 | -11.62895 | 37178 ft | 526 kts | 123° |
| 2026-05-05 18:54 | 61.47510 | -11.49987 | 37176 ft | 526 kts | 123° |
| 2026-05-05 18:55 | 61.43586 | -11.37048 | 37154 ft | 525 kts | 124° |
| 2026-05-05 18:55 | 61.39681 | -11.24241 | 37170 ft | 525 kts | 124° |
| 2026-05-05 18:56 | 61.35739 | -11.11390 | 37170 ft | 525 kts | 124° |
| 2026-05-05 18:56 | 61.31771 | -10.98546 | 37170 ft | 525 kts | 125° |
| 2026-05-05 18:57 | 61.27777 | -10.85910 | 37172 ft | 525 kts | 125° |
| 2026-05-05 18:57 | 61.23766 | -10.73195 | 37172 ft | 525 kts | 125° |
| 2026-05-05 18:58 | 61.20447 | -10.62626 | 37169 ft | 525 kts | 125° |
| 2026-05-05 18:58 | 61.16450 | -10.49928 | 37170 ft | 525 kts | 125° |
| 2026-05-05 18:59 | 61.12465 | -10.37339 | 37176 ft | 525 kts | 125° |
| 2026-05-05 18:59 | 61.08437 | -10.24690 | 37171 ft | 525 kts | 125° |
| 2026-05-05 19:00 | 61.04624 | -10.12783 | 37172 ft | 525 kts | 125° |
| 2026-05-05 19:00 | 61.00339 | -10.00703 | 37172 ft | 522 kts | 136° |
| 2026-05-05 19:01 | 60.94799 | -9.91141 | 37154 ft | 516 kts | 148° |
| 2026-05-05 19:01 | 60.88905 | -9.82832 | 37165 ft | 516 kts | 149° |
| 2026-05-05 19:02 | 60.83013 | -9.74337 | 37164 ft | 517 kts | 148° |
| 2026-05-05 19:02 | 60.77205 | -9.65686 | 37180 ft | 517 kts | 147° |
| 2026-05-05 19:03 | 60.71387 | -9.56970 | 37182 ft | 518 kts | 147° |
| 2026-05-05 19:03 | 60.65587 | -9.48330 | 37170 ft | 519 kts | 147° |
| 2026-05-05 19:04 | 60.62632 | -9.44072 | 37167 ft | 518 kts | 151° |
| 2026-05-05 19:05 | 60.56632 | -9.37545 | 37167 ft | 512 kts | 160° |
| 2026-05-05 19:05 | 60.50145 | -9.31714 | 37170 ft | 512 kts | 161° |
| 2026-05-05 19:06 | 60.43622 | -9.25854 | 37173 ft | 512 kts | 160° |
| 2026-05-05 19:06 | 60.37129 | -9.19873 | 37165 ft | 512 kts | 160° |
| 2026-05-05 19:07 | 60.30683 | -9.13899 | 37168 ft | 512 kts | 160° |
| 2026-05-05 19:07 | 60.24185 | -9.07903 | 37167 ft | 512 kts | 160° |
| 2026-05-05 19:08 | 60.17742 | -9.01991 | 37170 ft | 511 kts | 160° |
| 2026-05-05 19:08 | 60.11245 | -8.96058 | 37164 ft | 508 kts | 160° |
| 2026-05-05 19:09 | 60.04852 | -8.90244 | 37167 ft | 507 kts | 160° |
| 2026-05-05 19:09 | 59.98406 | -8.84411 | 37170 ft | 507 kts | 160° |
| 2026-05-05 19:10 | 59.92007 | -8.78644 | 37170 ft | 507 kts | 160° |
| 2026-05-05 19:10 | 59.85558 | -8.72868 | 37161 ft | 505 kts | 160° |
| 2026-05-05 19:11 | 59.79130 | -8.67186 | 37168 ft | 504 kts | 160° |
| 2026-05-05 19:11 | 59.72729 | -8.61522 | 37171 ft | 504 kts | 160° |
| 2026-05-05 19:12 | 59.66315 | -8.55843 | 37169 ft | 504 kts | 160° |
| 2026-05-05 19:12 | 59.59942 | -8.50216 | 37131 ft | 503 kts | 160° |
| 2026-05-05 19:13 | 59.53554 | -8.44597 | 37166 ft | 500 kts | 160° |
| 2026-05-05 19:13 | 59.47222 | -8.39056 | 37169 ft | 500 kts | 160° |
| 2026-05-05 19:14 | 59.44023 | -8.36267 | 37368 ft | 499 kts | 160° |
| 2026-05-05 19:14 | 59.40885 | -8.33535 | 37715 ft | 499 kts | 160° |
| 2026-05-05 19:14 | 59.37693 | -8.30762 | 38049 ft | 500 kts | 160° |
| 2026-05-05 19:14 | 59.34503 | -8.27997 | 38366 ft | 500 kts | 160° |
| 2026-05-05 19:15 | 59.31321 | -8.25244 | 38707 ft | 498 kts | 160° |
| 2026-05-05 19:15 | 59.28188 | -8.22537 | 39026 ft | 497 kts | 160° |
| 2026-05-05 19:15 | 59.25009 | -8.19798 | 39129 ft | 498 kts | 160° |
| 2026-05-05 19:15 | 59.21827 | -8.17062 | 39157 ft | 498 kts | 160° |
| 2026-05-05 19:16 | 59.15473 | -8.11614 | 39170 ft | 498 kts | 160° |
| 2026-05-05 19:16 | 59.09140 | -8.06222 | 39171 ft | 498 kts | 160° |
| 2026-05-05 19:17 | 59.02809 | -8.00897 | 39163 ft | 497 kts | 160° |
| 2026-05-05 19:17 | 58.96443 | -7.95531 | 39170 ft | 497 kts | 160° |
| 2026-05-05 19:18 | 58.90123 | -7.90203 | 39171 ft | 497 kts | 160° |
| 2026-05-05 19:18 | 58.83767 | -7.84860 | 39166 ft | 497 kts | 160° |
| 2026-05-05 19:19 | 58.77447 | -7.79570 | 39150 ft | 496 kts | 160° |
| 2026-05-05 19:19 | 58.71117 | -7.74292 | 39167 ft | 495 kts | 160° |
| 2026-05-05 19:20 | 58.64805 | -7.69053 | 39166 ft | 495 kts | 160° |
| 2026-05-05 19:20 | 58.58479 | -7.63822 | 39168 ft | 494 kts | 160° |
| 2026-05-05 19:21 | 58.52186 | -7.58640 | 39167 ft | 495 kts | 160° |
| 2026-05-05 19:21 | 58.45859 | -7.53449 | 39168 ft | 495 kts | 160° |
| 2026-05-05 19:22 | 58.40588 | -7.49140 | 39168 ft | 494 kts | 160° |
| 2026-05-05 19:22 | 58.33217 | -7.43149 | 39169 ft | 494 kts | 161° |
| 2026-05-05 19:23 | 58.27945 | -7.38920 | 39169 ft | 494 kts | 161° |
| 2026-05-05 19:23 | 58.21597 | -7.33822 | 39159 ft | 493 kts | 160° |
| 2026-05-05 19:24 | 58.15300 | -7.28758 | 39162 ft | 493 kts | 160° |
| 2026-05-05 19:24 | 58.08994 | -7.23699 | 39162 ft | 493 kts | 160° |
| 2026-05-05 19:25 | 58.02671 | -7.18647 | 39159 ft | 493 kts | 161° |
| 2026-05-05 19:25 | 57.96341 | -7.13608 | 39154 ft | 491 kts | 160° |
| 2026-05-05 19:26 | 57.90077 | -7.08642 | 39159 ft | 491 kts | 161° |
| 2026-05-05 19:26 | 57.83762 | -7.03656 | 39157 ft | 490 kts | 161° |
| 2026-05-05 19:27 | 57.77498 | -6.98729 | 39155 ft | 490 kts | 161° |
| 2026-05-05 19:27 | 57.71218 | -6.93807 | 39140 ft | 489 kts | 161° |
| 2026-05-05 19:28 | 57.64928 | -6.88895 | 39154 ft | 489 kts | 161° |
| 2026-05-05 19:28 | 57.58670 | -6.84028 | 39153 ft | 489 kts | 161° |
| 2026-05-05 19:29 | 57.52372 | -6.79193 | 39145 ft | 488 kts | 161° |
| 2026-05-05 19:29 | 57.46075 | -6.74367 | 39128 ft | 488 kts | 161° |
| 2026-05-05 19:30 | 57.39830 | -6.69571 | 39144 ft | 487 kts | 161° |
| 2026-05-05 19:30 | 57.33554 | -6.64761 | 39139 ft | 487 kts | 161° |
| 2026-05-05 19:31 | 57.27330 | -6.60008 | 39142 ft | 487 kts | 161° |
| 2026-05-05 19:31 | 57.21052 | -6.55232 | 39133 ft | 487 kts | 161° |
| 2026-05-05 19:32 | 57.14825 | -6.50512 | 39131 ft | 485 kts | 161° |
| 2026-05-05 19:32 | 57.08555 | -6.45778 | 39123 ft | 485 kts | 161° |
| 2026-05-05 19:33 | 57.02342 | -6.41104 | 39128 ft | 485 kts | 161° |
| 2026-05-05 19:33 | 56.96076 | -6.36407 | 39121 ft | 485 kts | 161° |
| 2026-05-05 19:34 | 56.89854 | -6.31760 | 39110 ft | 484 kts | 161° |
| 2026-05-05 19:35 | 56.80481 | -6.24796 | 39107 ft | 484 kts | 161° |
| 2026-05-05 19:35 | 56.74213 | -6.20204 | 39105 ft | 484 kts | 161° |
| 2026-05-05 19:36 | 56.67997 | -6.15647 | 39027 ft | 485 kts | 161° |
| 2026-05-05 19:36 | 56.64862 | -6.13346 | 38640 ft | 485 kts | 161° |
| 2026-05-05 19:36 | 56.61728 | -6.11044 | 38147 ft | 483 kts | 161° |
| 2026-05-05 19:36 | 56.58617 | -6.08762 | 37657 ft | 482 kts | 161° |
| 2026-05-05 19:37 | 56.55530 | -6.06503 | 37174 ft | 481 kts | 161° |
| 2026-05-05 19:37 | 56.52412 | -6.04225 | 36725 ft | 481 kts | 161° |
| 2026-05-05 19:37 | 56.49293 | -6.01951 | 36269 ft | 480 kts | 161° |
| 2026-05-05 19:37 | 56.46228 | -5.99721 | 35833 ft | 479 kts | 161° |
| 2026-05-05 19:38 | 56.43127 | -5.97468 | 35370 ft | 479 kts | 162° |
| 2026-05-05 19:38 | 56.40037 | -5.95227 | 34941 ft | 478 kts | 162° |
| 2026-05-05 19:38 | 56.36976 | -5.93012 | 34522 ft | 477 kts | 162° |
| 2026-05-05 19:38 | 56.33894 | -5.90785 | 34110 ft | 476 kts | 162° |
| 2026-05-05 19:39 | 56.30822 | -5.88536 | 33610 ft | 477 kts | 160° |
| 2026-05-05 19:39 | 56.27823 | -5.85905 | 33132 ft | 481 kts | 154° |
| 2026-05-05 19:39 | 56.25035 | -5.82490 | 32658 ft | 487 kts | 143° |
| 2026-05-05 19:39 | 56.22619 | -5.78284 | 32198 ft | 493 kts | 133° |
| 2026-05-05 19:40 | 56.20582 | -5.73282 | 31637 ft | 499 kts | 123° |
| 2026-05-05 19:40 | 56.18959 | -5.67728 | 31047 ft | 501 kts | 117° |
| 2026-05-05 19:40 | 56.17567 | -5.61965 | 30417 ft | 503 kts | 114° |
| 2026-05-05 19:40 | 56.16240 | -5.56164 | 29718 ft | 500 kts | 114° |
| 2026-05-05 19:41 | 56.14923 | -5.50500 | 29052 ft | 495 kts | 115° |
| 2026-05-05 19:41 | 56.13554 | -5.44833 | 28414 ft | 490 kts | 115° |
| 2026-05-05 19:41 | 56.12166 | -5.39283 | 27791 ft | 485 kts | 116° |
| 2026-05-05 19:41 | 56.10780 | -5.33864 | 27187 ft | 480 kts | 116° |
| 2026-05-05 19:42 | 56.09379 | -5.28452 | 26581 ft | 476 kts | 116° |
| 2026-05-05 19:42 | 56.07989 | -5.23116 | 25755 ft | 468 kts | 116° |
| 2026-05-05 19:42 | 56.06614 | -5.17851 | 24769 ft | 463 kts | 116° |
| 2026-05-05 19:42 | 56.05253 | -5.12653 | 23824 ft | 457 kts | 116° |
| 2026-05-05 19:43 | 56.03922 | -5.07523 | 22765 ft | 451 kts | 115° |
| 2026-05-05 19:43 | 56.02634 | -5.02480 | 22235 ft | 434 kts | 115° |
| 2026-05-05 19:43 | 56.01430 | -4.97741 | 22028 ft | 411 kts | 115° |
| 2026-05-05 19:43 | 56.00265 | -4.93151 | 21153 ft | 402 kts | 115° |
| 2026-05-05 19:44 | 55.99113 | -4.88625 | 20209 ft | 394 kts | 115° |
| 2026-05-05 19:44 | 55.97992 | -4.84239 | 19093 ft | 390 kts | 115° |
| 2026-05-05 19:44 | 55.96867 | -4.79862 | 18002 ft | 384 kts | 115° |
| 2026-05-05 19:44 | 55.95755 | -4.75566 | 16879 ft | 378 kts | 115° |
| 2026-05-05 19:45 | 55.94654 | -4.71341 | 15811 ft | 371 kts | 115° |
| 2026-05-05 19:45 | 55.93565 | -4.67197 | 14793 ft | 366 kts | 115° |
| 2026-05-05 19:45 | 55.92487 | -4.63123 | 13816 ft | 360 kts | 115° |
| 2026-05-05 19:45 | 55.91430 | -4.59165 | 12806 ft | 354 kts | 115° |
| 2026-05-05 19:46 | 55.90376 | -4.55254 | 12125 ft | 340 kts | 115° |
| 2026-05-05 19:46 | 55.89371 | -4.51545 | 11619 ft | 324 kts | 115° |
| 2026-05-05 19:46 | 55.88415 | -4.48035 | 11097 ft | 311 kts | 115° |
| 2026-05-05 19:46 | 55.87476 | -4.44601 | 10680 ft | 305 kts | 115° |
| 2026-05-05 19:47 | 55.86550 | -4.41235 | 10318 ft | 301 kts | 115° |
| 2026-05-05 19:47 | 55.85627 | -4.37893 | 9901 ft | 299 kts | 115° |
| 2026-05-05 19:47 | 55.84707 | -4.34578 | 9462 ft | 296 kts | 115° |
| 2026-05-05 19:47 | 55.83804 | -4.31341 | 9039 ft | 293 kts | 116° |
| 2026-05-05 19:48 | 55.82902 | -4.28099 | 8626 ft | 290 kts | 116° |
| 2026-05-05 19:48 | 55.82256 | -4.24736 | 8159 ft | 285 kts | 96° |
| 2026-05-05 19:48 | 55.82123 | -4.21244 | 7713 ft | 282 kts | 90° |
| 2026-05-05 19:48 | 55.82090 | -4.17766 | 7256 ft | 281 kts | 88° |
| 2026-05-05 19:49 | 55.82061 | -4.14350 | 6897 ft | 275 kts | 88° |
| 2026-05-05 19:49 | 55.82045 | -4.12053 | 6635 ft | 273 kts | 89° |
| 2026-05-05 19:49 | 55.82028 | -4.07615 | 5994 ft | 268 kts | 89° |
| 2026-05-05 19:49 | 55.82017 | -4.04331 | 5404 ft | 262 kts | 89° |
| 2026-05-05 19:50 | 55.82011 | -4.01135 | 5027 ft | 255 kts | 88° |
| 2026-05-05 19:50 | 55.82016 | -3.98004 | 4618 ft | 253 kts | 89° |
| 2026-05-05 19:50 | 55.82027 | -3.94981 | 4218 ft | 238 kts | 89° |
| 2026-05-05 19:50 | 55.82031 | -3.92174 | 4000 ft | 214 kts | 89° |
| 2026-05-05 19:51 | 55.82016 | -3.89601 | 3982 ft | 202 kts | 89° |
| 2026-05-05 19:51 | 55.81996 | -3.87167 | 3983 ft | 196 kts | 89° |
| 2026-05-05 19:51 | 55.81977 | -3.84774 | 3982 ft | 195 kts | 89° |
| 2026-05-05 19:51 | 55.81958 | -3.82360 | 3997 ft | 193 kts | 89° |
| 2026-05-05 19:52 | 55.81935 | -3.79980 | 3995 ft | 194 kts | 89° |
| 2026-05-05 19:52 | 55.81915 | -3.77630 | 3976 ft | 178 kts | 89° |
| 2026-05-05 19:52 | 55.82144 | -3.75614 | 3935 ft | 161 kts | 61° |
| 2026-05-05 19:52 | 55.82700 | -3.73879 | 4009 ft | 161 kts | 62° |
| 2026-05-05 19:53 | 55.83230 | -3.72127 | 3992 ft | 161 kts | 61° |
| 2026-05-05 19:53 | 55.83766 | -3.70406 | 3995 ft | 161 kts | 61° |
| 2026-05-05 19:53 | 55.84339 | -3.68671 | 3988 ft | 162 kts | 59° |
| 2026-05-05 19:53 | 55.84923 | -3.66952 | 3874 ft | 162 kts | 59° |
| 2026-05-05 19:54 | 55.85472 | -3.65333 | 3653 ft | 148 kts | 60° |
| 2026-05-05 19:54 | 55.85989 | -3.63811 | 3446 ft | 142 kts | 60° |
| 2026-05-05 19:54 | 55.86502 | -3.62300 | 3268 ft | 142 kts | 60° |
| 2026-05-05 19:54 | 55.87010 | -3.60802 | 3069 ft | 140 kts | 60° |
| 2026-05-05 19:55 | 55.87515 | -3.59315 | 2894 ft | 140 kts | 61° |
| 2026-05-05 19:55 | 55.88022 | -3.57823 | 2697 ft | 140 kts | 62° |
| 2026-05-05 19:55 | 55.88535 | -3.56307 | 2542 ft | 152 kts | 62° |
| 2026-05-05 19:55 | 55.89093 | -3.54660 | 2310 ft | 156 kts | 62° |
| 2026-05-05 19:56 | 55.89655 | -3.53006 | 2081 ft | 156 kts | 62° |
| 2026-05-05 19:56 | 55.90214 | -3.51361 | 1856 ft | 156 kts | 62° |
| 2026-05-05 19:56 | 55.90779 | -3.49693 | 1626 ft | 157 kts | 62° |
| 2026-05-05 19:56 | 55.91341 | -3.48037 | 1432 ft | 157 kts | 62° |
| 2026-05-05 19:57 | 55.91907 | -3.46368 | 1200 ft | 157 kts | 61° |
| 2026-05-05 19:57 | 55.92281 | -3.45270 | 1033 ft | 156 kts | 61° |
| 2026-05-05 19:57 | 55.92996 | -3.43220 | 710 ft | 139 kts | 60° |
| 2026-05-05 19:57 | 55.93488 | -3.41743 | 543 ft | 138 kts | 62° |
| 2026-05-05 19:58 | 55.93970 | -3.40316 | 349 ft | 135 kts | 61° |
| 2026-05-05 19:58 | 55.94456 | -3.38879 | 177 ft | 133 kts | 64° |
| 2026-05-05 19:58 | 55.94903 | -3.37532 | 117 ft | 106 kts | 59° |
| 2026-05-05 19:58 | 55.95152 | -3.36800 | 117 ft | 39 kts | 58° |
| 2026-05-05 19:59 | 55.95247 | -3.36542 | 115 ft | 13 kts | 56° |
| 2026-05-05 19:59 | 55.95260 | -3.36453 | 117 ft | 7 kts | 102° |
| 2026-05-05 19:59 | 55.95229 | -3.36392 | 117 ft | 3 kts | 142° |
| 2026-05-05 19:59 | 55.95217 | -3.36376 | 117 ft | 4 kts | 143° |
| 2026-05-05 20:00 | 55.95170 | -3.36316 | 119 ft | 2 kts | 143° |
| 2026-05-05 20:00 | 55.95165 | -3.36309 | 119 ft | 0 kts | 143° |
| 2026-05-05 20:00 | 55.95151 | -3.36272 | 119 ft | 7 kts | 118° |
| 2026-05-05 20:00 | 55.95154 | -3.36211 | 122 ft | 6 kts | 67° |
| 2026-05-05 20:01 | 55.95188 | -3.36123 | 121 ft | 10 kts | 53° |
| 2026-05-05 20:01 | 55.95211 | -3.36043 | 119 ft | 5 kts | 82° |
| 2026-05-05 20:01 | 55.95204 | -3.36000 | 119 ft | 3 kts | 117° |
| 2026-05-05 20:01 | 55.95189 | -3.35970 | 118 ft | 4 kts | 139° |
| 2026-05-05 20:02 | 55.95163 | -3.35940 | 120 ft | 7 kts | 146° |
| 2026-05-05 20:02 | 55.95126 | -3.35882 | 119 ft | 7 kts | 129° |
| 2026-05-05 20:02 | 55.95098 | -3.35805 | 119 ft | 10 kts | 124° |
| 2026-05-05 20:02 | 55.95048 | -3.35666 | 120 ft | 15 kts | 121° |
| 2026-05-05 20:03 | 55.94997 | -3.35506 | 119 ft | 15 kts | 119° |
| 2026-05-05 20:03 | 55.94948 | -3.35347 | 120 ft | 15 kts | 118° |
| 2026-05-05 20:03 | 55.94900 | -3.35190 | 120 ft | 14 kts | 118° |
| 2026-05-05 20:03 | 55.94852 | -3.35034 | 119 ft | 14 kts | 118° |
| 2026-05-05 20:04 | 55.94838 | -3.34927 | 121 ft | 6 kts | 73° |
| 2026-05-05 20:04 | 55.94867 | -3.34879 | 121 ft | 7 kts | 33° |
| 2026-05-05 20:04 | 55.94913 | -3.34840 | 120 ft | 5 kts | 11° |
| 2026-05-05 20:04 | 55.94938 | -3.34861 | 122 ft | 6 kts | 320° |
| 2026-05-05 20:05 | 55.94969 | -3.34875 | 122 ft | 4 kts | 7° |
| 2026-05-05 20:05 | 55.94992 | -3.34861 | 119 ft | 3 kts | 22° |
| 2026-05-05 20:05 | 55.95011 | -3.34844 | 119 ft | 3 kts | 29° |
| 2026-05-05 20:05 | 55.95013 | -3.34842 | 120 ft | 0 kts | 29° |